Time;durP1;ratioP1;P1;durP2;ratioP2;P2;SDS_P1;SDS_P2;PMS_P1;PMS_P2;Temp;Humidity;BMP_temperature;BMP_pressure;BME280_temperature;BME280_humidity;BME280_pressure;Samples;Min_cycle;Max_cycle;Signal;HPM_P1;HPM_P2
2022/07/20 00:01:16;;;;;;;8.43;5.75;;;;;;;;;;4988730;28;20561;-59
2022/07/20 00:03:45;;;;;;;9.85;4.30;;;;;;;;;;4989552;28;20384;-57
2022/07/20 00:06:11;;;;;;;14.85;4.40;;;;;;;;;;4989945;28;20479;-56
2022/07/20 00:11:23;;;;;;;14.23;4.80;;;;;;;;;;4994941;28;20077;-57
2022/07/20 00:13:49;;;;;;;;;;;;;;;;;;4995899;28;20034;-58
2022/07/20 00:16:15;;;;;;;11.80;3.85;;;;;;;;;;4995331;28;19921;-55
2022/07/20 00:18:41;;;;;;;15.15;4.32;;;;;;;;;;4995245;28;20479;-57
2022/07/20 00:21:07;;;;;;;9.23;3.55;;;;;;;;;;4995007;28;20073;-59
2022/07/20 00:23:33;;;;;;;6.50;3.35;;;;;;;;;;4995021;28;20026;-56
2022/07/20 00:25:59;;;;;;;10.70;4.00;;;;;;;;;;4995114;28;20093;-59
2022/07/20 00:28:25;;;;;;;10.63;4.03;;;;;;;;;;4995236;28;20384;-59
2022/07/20 00:30:51;;;;;;;10.85;3.20;;;;;;;;;;4993806;28;20487;-59
2022/07/20 00:33:17;;;;;;;13.02;4.70;;;;;;;;;;4995474;28;20242;-55
2022/07/20 00:35:43;;;;;;;14.75;3.55;;;;;;;;;;4995027;28;20027;-59
2022/07/20 00:38:09;;;;;;;8.80;3.28;;;;;;;;;;4993544;28;20037;-59
2022/07/20 00:40:35;;;;;;;12.90;3.35;;;;;;;;;;4992336;28;20117;-57
2022/07/20 00:43:10;;;;;;;13.68;4.07;;;;;;;;;;4994514;28;20188;-57
2022/07/20 00:45:36;;;;;;;14.27;3.53;;;;;;;;;;4994753;28;20026;-58
2022/07/20 00:48:03;;;;;;;15.18;3.58;;;;;;;;;;4993316;28;20101;-57
2022/07/20 00:50:30;;;;;;;7.95;3.45;;;;;;;;;;4994713;28;20388;-58
2022/07/20 00:52:57;;;;;;;5.75;3.17;;;;;;;;;;4977224;28;20030;-59
2022/07/20 00:55:26;;;;;;;5.68;3.35;;;;;;;;;;4994571;28;20034;-58
2022/07/20 00:57:52;;;;;;;7.25;3.25;;;;;;;;;;4994376;28;20475;-57
2022/07/20 01:00:21;;;;;;;5.20;3.30;;;;;;;;;;4994268;28;20030;-57
2022/07/20 01:02:47;;;;;;;10.05;3.38;;;;;;;;;;4993712;28;20019;-57
2022/07/20 01:05:16;;;;;;;6.22;3.17;;;;;;;;;;4986047;28;20408;-57
2022/07/20 01:07:47;;;;;;;8.10;3.70;;;;;;;;;;4975175;28;20476;-56
2022/07/20 01:10:14;;;;;;;7.82;3.15;;;;;;;;;;4991083;28;20037;-55
2022/07/20 01:12:48;;;;;;;4.82;2.72;;;;;;;;;;4994757;28;20022;-59
2022/07/20 01:15:14;;;;;;;8.65;3.45;;;;;;;;;;4994607;28;20499;-57
2022/07/20 01:17:40;;;;;;;7.47;4.32;;;;;;;;;;4994044;28;20033;-58
2022/07/20 01:20:06;;;;;;;8.97;3.60;;;;;;;;;;4993405;28;20034;-59
2022/07/20 01:22:32;;;;;;;6.78;3.55;;;;;;;;;;4993602;28;20279;-56
2022/07/20 01:24:58;;;;;;;6.13;3.55;;;;;;;;;;4992457;28;20065;-57
2022/07/20 01:27:24;;;;;;;4.28;3.20;;;;;;;;;;4994057;28;20040;-58
2022/07/20 01:29:50;;;;;;;8.57;3.47;;;;;;;;;;4993433;28;20390;-59
2022/07/20 01:32:16;;;;;;;9.73;3.33;;;;;;;;;;4992640;28;20034;-57
2022/07/20 01:34:42;;;;;;;8.50;4.45;;;;;;;;;;4992159;28;20018;-58
2022/07/20 01:37:08;;;;;;;4.90;3.70;;;;;;;;;;4992099;28;20072;-56
2022/07/20 01:39:34;;;;;;;6.22;3.85;;;;;;;;;;4992113;28;20049;-57
2022/07/20 01:42:00;;;;;;;9.70;4.22;;;;;;;;;;4993009;28;20030;-56
2022/07/20 01:44:26;;;;;;;8.07;4.97;;;;;;;;;;4993215;28;20034;-57
2022/07/20 01:46:52;;;;;;;12.07;4.28;;;;;;;;;;4992708;28;20085;-58
2022/07/20 01:49:19;;;;;;;12.38;6.20;;;;;;;;;;4993034;28;20483;-57
2022/07/20 01:51:45;;;;;;;10.38;4.93;;;;;;;;;;4993662;28;20112;-57
2022/07/20 01:54:12;;;;;;;8.02;5.07;;;;;;;;;;4993819;28;20150;-57
2022/07/20 01:56:41;;;;;;;9.13;4.13;;;;;;;;;;4992063;28;20391;-56
2022/07/20 01:59:08;;;;;;;10.20;4.80;;;;;;;;;;4991832;28;20509;-58
2022/07/20 02:01:35;;;;;;;8.48;4.20;;;;;;;;;;4993701;28;20031;-58
2022/07/20 02:04:01;;;;;;;12.65;5.25;;;;;;;;;;4992881;28;20396;-57
2022/07/20 02:06:27;;;;;;;6.93;4.38;;;;;;;;;;4993102;28;20031;-57
2022/07/20 02:08:53;;;;;;;6.13;4.10;;;;;;;;;;4992795;28;20045;-59
2022/07/20 02:11:20;;;;;;;8.03;4.10;;;;;;;;;;4993008;28;20511;-56
2022/07/20 02:13:46;;;;;;;8.18;4.05;;;;;;;;;;4992957;28;20837;-57
2022/07/20 02:16:15;;;;;;;6.72;3.78;;;;;;;;;;4992021;28;20117;-58
2022/07/20 02:18:42;;;;;;;11.05;4.03;;;;;;;;;;4992967;28;20038;-58
2022/07/20 02:21:08;;;;;;;8.07;3.75;;;;;;;;;;4993123;28;20034;-57
2022/07/20 02:23:34;;;;;;;10.73;4.23;;;;;;;;;;4992809;28;20038;-58
2022/07/20 02:26:00;;;;;;;11.80;4.77;;;;;;;;;;4991805;28;20290;-58
2022/07/20 02:28:26;;;;;;;13.48;4.07;;;;;;;;;;4992662;28;20276;-56
2022/07/20 02:30:52;;;;;;;8.30;4.78;;;;;;;;;;4992522;28;20030;-57
2022/07/20 02:33:18;;;;;;;10.20;4.55;;;;;;;;;;4991860;28;20030;-59
2022/07/20 02:35:44;;;;;;;12.10;4.47;;;;;;;;;;4992600;28;20395;-58
2022/07/20 02:38:10;;;;;;;15.17;4.70;;;;;;;;;;4991444;28;20049;-59
2022/07/20 02:40:37;;;;;;;8.10;4.43;;;;;;;;;;4991539;28;20030;-56
2022/07/20 02:43:03;;;;;;;8.48;4.53;;;;;;;;;;4992547;28;20027;-56
2022/07/20 02:45:29;;;;;;;10.50;4.13;;;;;;;;;;4992218;28;20475;-59
2022/07/20 02:48:02;;;;;;;9.00;4.13;;;;;;;;;;4992312;28;20030;-57
2022/07/20 02:50:28;;;;;;;8.98;4.00;;;;;;;;;;4989475;28;20065;-57
2022/07/20 02:52:54;;;;;;;11.70;5.10;;;;;;;;;;4992176;28;20034;-58
2022/07/20 02:55:20;;;;;;;10.45;4.38;;;;;;;;;;4992234;28;20026;-55
2022/07/20 02:57:46;;;;;;;9.35;4.85;;;;;;;;;;4991349;28;20089;-56
2022/07/20 03:00:12;;;;;;;11.07;4.38;;;;;;;;;;4990064;28;20057;-58
2022/07/20 03:02:39;;;;;;;8.40;3.33;;;;;;;;;;4992546;28;20033;-57
2022/07/20 03:05:05;;;;;;;9.35;4.40;;;;;;;;;;4990584;28;20026;-57
2022/07/20 03:07:31;;;;;;;14.10;4.57;;;;;;;;;;4992234;28;20109;-58
2022/07/20 03:09:57;;;;;;;8.57;4.88;;;;;;;;;;4992133;28;20031;-55
2022/07/20 03:12:23;;;;;;;13.68;5.53;;;;;;;;;;4992509;28;20567;-58
2022/07/20 03:14:49;;;;;;;17.33;5.25;;;;;;;;;;4992009;28;20062;-57
2022/07/20 03:17:16;;;;;;;10.73;5.00;;;;;;;;;;4986404;28;20066;-58
2022/07/20 03:19:42;;;;;;;;;;;;;;;;;;4991877;28;20019;-55
2022/07/20 03:22:08;;;;;;;8.88;4.50;;;;;;;;;;4986107;28;19965;-57
2022/07/20 03:24:34;;;;;;;10.88;4.50;;;27.80;47.60;;;;;;4990930;28;20603;-56
2022/07/20 03:27:00;;;;;;;11.30;4.57;;;;;;;;;;4992627;28;20038;-58
2022/07/20 03:29:26;;;;;;;10.32;4.50;;;;;;;;;;4992111;28;20168;-58
2022/07/20 03:31:52;;;;;;;8.07;3.93;;;;;;;;;;4991596;28;20371;-56
2022/07/20 03:34:18;;;;;;;14.47;5.00;;;;;;;;;;4990206;28;20624;-58
2022/07/20 03:36:44;;;;;;;10.98;5.68;;;;;;;;;;4988658;28;20038;-61
2022/07/20 03:39:10;;;;;;;11.60;4.65;;;;;;;;;;4985652;28;20428;-59
2022/07/20 03:41:36;;;;;;;9.60;4.37;;;;;;;;;;4983416;28;20090;-59
2022/07/20 03:44:02;;;;;;;11.40;5.03;;;;;;;;;;4992538;28;20277;-59
2022/07/20 03:46:28;;;;;;;11.48;5.25;;;;;;;;;;4994728;28;20654;-61
2022/07/20 03:48:54;;;;;;;10.33;4.67;;;;;;;;;;4988883;28;20173;-62
2022/07/20 03:51:20;;;;;;;36.43;5.13;;;;;;;;;;4977512;28;20723;-58
2022/07/20 03:53:47;;;;;;;11.00;4.63;;;;;;;;;;4976238;28;20266;-61
2022/07/20 03:56:13;;;;;;;8.68;5.05;;;;;;;;;;4976650;28;20282;-58
2022/07/20 03:58:39;;;;;;;10.65;5.75;;;;;;;;;;4976524;28;20074;-59
2022/07/20 04:01:05;;;;;;;15.82;4.65;;;;;;;;;;4978693;28;20128;-59
2022/07/20 04:03:31;;;;;;;13.47;4.73;;;;;;;;;;4984980;28;20484;-57
2022/07/20 04:05:57;;;;;;;10.00;5.27;;;;;;;;;;4976383;28;20746;-58
2022/07/20 04:08:23;;;;;;;8.05;4.93;;;;;;;;;;4975022;28;20332;-59
2022/07/20 04:10:49;;;;;;;16.10;5.73;;;;;;;;;;4976318;28;20026;-58
2022/07/20 04:13:15;;;;;;;8.40;5.50;;;;;;;;;;4976230;28;20349;-58
2022/07/20 04:15:41;;;;;;;9.10;5.20;;;;;;;;;;4976139;28;20297;-56
2022/07/20 04:18:07;;;;;;;12.02;5.45;;;;;;;;;;4976183;28;20400;-57
2022/07/20 04:20:33;;;;;;;11.83;4.73;;;;;;;;;;4976042;28;20503;-59
2022/07/20 04:22:59;;;;;;;5.93;4.50;;;;;;;;;;4975984;28;20254;-60
2022/07/20 04:25:25;;;;;;;14.95;4.78;;;;;;;;;;4976195;28;20027;-59
2022/07/20 04:27:51;;;;;;;15.23;5.38;;;;;;;;;;4974722;28;20089;-59
2022/07/20 04:30:17;;;;;;;9.35;5.18;;;;;;;;;;4977394;28;20058;-56
2022/07/20 04:32:43;;;;;;;13.87;5.73;;;;;;;;;;4985701;28;20022;-56
2022/07/20 04:35:10;;;;;;;10.52;5.68;;;;;;;;;;4978512;28;20254;-54
2022/07/20 04:37:36;;;;;;;14.82;5.82;;;;;;;;;;4975865;28;20085;-55
2022/07/20 04:40:03;;;;;;;12.18;4.95;;;;;;;;;;4975809;28;20027;-58
2022/07/20 04:42:29;;;;;;;9.20;5.63;;;;;;;;;;4975875;28;20027;-55
2022/07/20 04:44:55;;;;;;;10.85;4.78;;;;;;;;;;4975716;28;20101;-55
2022/07/20 04:47:21;;;;;;;11.57;5.95;;;;;;;;;;4975772;28;20053;-57
2022/07/20 04:49:48;;;;;;;12.32;5.40;;;;;;;;;;4975536;28;20524;-56
2022/07/20 04:52:14;;;;;;;24.15;6.63;;;;;;;;;;4975735;28;20034;-55
2022/07/20 04:54:40;;;;;;;12.50;5.20;;;;;;;;;;4975289;28;20038;-57
2022/07/20 04:57:06;;;;;;;8.68;5.43;;;;;;;;;;4975348;28;20763;-58
2022/07/20 04:59:32;;;;;;;16.45;6.20;;;26.10;50.10;;;;;;4975311;28;20027;-58
2022/07/20 05:01:58;;;;;;;15.20;6.97;;;25.20;54.20;;;;;;4975503;28;20025;-58
2022/07/20 05:04:23;;;;;;;8.07;5.13;;;25.00;55.40;;;;;;4975621;28;20094;-54
2022/07/20 05:06:49;;;;;;;8.63;6.00;;;24.90;55.90;;;;;;4975468;28;20037;-54
2022/07/20 05:09:15;;;;;;;16.43;6.60;;;24.80;55.50;;;;;;4975164;28;20030;-58
2022/07/20 05:11:41;;;;;;;19.27;6.50;;;;;;;;;;4975321;28;20023;-57
2022/07/20 05:14:08;;;;;;;13.43;5.97;;;;;;;;;;4975500;28;20643;-56
2022/07/20 05:16:34;;;;;;;17.60;5.85;;;;;;;;;;4975154;28;20031;-55
2022/07/20 05:19:01;;;;;;;12.82;5.90;;;;;;;;;;4974964;28;20109;-55
2022/07/20 05:21:27;;;;;;;11.13;6.00;;;;;;;;;;4975182;28;20491;-55
2022/07/20 05:23:53;;;;;;;15.07;6.18;;;;;;;;;;4975133;28;20039;-57
2022/07/20 05:26:19;;;;;;;11.82;6.28;;;;;;;;;;4975270;28;20031;-55
2022/07/20 05:28:45;;;;;;;15.87;6.27;;;;;;;;;;4975003;28;20027;-55
2022/07/20 05:31:14;;;;;;;12.93;6.70;;;;;;;;;;4974979;28;20266;-59
2022/07/20 05:33:41;;;;;;;18.65;7.22;;;;;;;;;;4974861;28;20035;-57
2022/07/20 05:36:07;;;;;;;8.93;6.88;;;;;;;;;;4975039;28;20031;-60
2022/07/20 05:38:33;;;;;;;12.13;7.57;;;;;;;;;;4974834;28;20142;-59
2022/07/20 05:40:59;;;;;;;11.38;6.95;;;;;;;;;;4974797;28;20023;-58
2022/07/20 05:43:25;;;;;;;14.33;7.37;;;;;;;;;;4974698;28;20019;-58
2022/07/20 05:45:51;;;;;;;15.25;7.90;;;;;;;;;;4974756;28;20269;-58
2022/07/20 05:48:17;;;;;;;14.05;6.70;;;;;;;;;;4974694;28;20030;-59
2022/07/20 05:50:44;;;;;;;14.18;7.50;;;;;;;;;;4974392;28;20026;-58
2022/07/20 05:53:10;;;;;;;;;;;;;;;;;;4974922;28;20487;-54
2022/07/20 05:55:37;;;;;;;17.05;7.50;;;;;;;;;;4974467;28;19913;-53
2022/07/20 05:58:04;;;;;;;9.55;6.50;;;;;;;;;;4974400;28;20447;-52
2022/07/20 06:00:30;;;;;;;8.55;6.10;;;;;;;;;;4974166;28;20474;-54
2022/07/20 06:02:56;;;;;;;13.88;6.80;;;;;;;;;;4974226;28;20023;-52
2022/07/20 06:05:22;;;;;;;9.38;6.32;;;;;;;;;;4972969;28;20027;-54
2022/07/20 06:07:48;;;;;;;15.20;6.93;;;;;;;;;;4973623;28;20427;-55
2022/07/20 06:10:14;;;;;;;12.38;6.82;;;;;;;;;;4974007;28;20033;-57
2022/07/20 06:12:40;;;;;;;13.32;7.15;;;;;;;;;;4974101;28;20450;-55
2022/07/20 06:15:07;;;;;;;12.98;6.65;;;;;;;;;;4973932;28;20129;-54
2022/07/20 06:17:39;;;;;;;12.43;8.50;;;;;;;;;;4973850;28;20030;-54
2022/07/20 06:20:07;;;;;;;15.50;7.65;;;;;;;;;;4974010;28;20035;-54
2022/07/20 06:22:34;;;;;;;10.55;6.80;;;;;;;;;;4973943;28;20026;-54
2022/07/20 06:25:00;;;;;;;12.68;7.18;;;;;;;;;;4973817;28;20085;-57
2022/07/20 06:27:26;;;;;;;12.48;7.10;;;;;;;;;;4974117;28;20431;-52
2022/07/20 06:29:52;;;;;;;12.68;7.53;;;;;;;;;;4973624;28;20027;-53
2022/07/20 06:32:18;;;;;;;12.48;6.93;;;;;;;;;;4973825;28;20435;-55
2022/07/20 06:34:45;;;;;;;11.20;6.38;;;;;;;;;;4973891;28;20097;-55
2022/07/20 06:37:11;;;;;;;18.35;7.40;;;;;;;;;;4972264;28;20487;-54
2022/07/20 06:39:37;;;;;;;15.02;7.30;;;;;;;;;;4973400;28;20499;-53
2022/07/20 06:42:03;;;;;;;12.57;6.90;;;;;;;;;;4973455;28;20041;-57
2022/07/20 06:44:29;;;;;;;20.50;8.13;;;;;;;;;;4973460;28;20082;-53
2022/07/20 06:46:55;;;;;;;20.77;7.80;;;;;;;;;;4973488;28;20027;-54
2022/07/20 06:49:21;;;;;;;13.18;7.43;;;;;;;;;;4973295;28;20030;-53
2022/07/20 06:51:48;;;;;;;19.15;8.52;;;;;;;;;;4973340;28;20031;-54
2022/07/20 06:54:14;;;;;;;11.10;7.65;;;;;;;;;;4973384;28;20030;-56
2022/07/20 06:56:40;;;;;;;18.50;7.95;;;;;;;;;;4973365;28;20031;-52
2022/07/20 06:59:06;;;;;;;18.25;8.15;;;;;;;;;;4973121;28;20034;-54
2022/07/20 07:01:32;;;;;;;15.52;7.60;;;;;;;;;;4973317;28;20388;-55
2022/07/20 07:03:58;;;;;;;18.60;8.30;;;;;;;;;;4971936;28;20527;-55
2022/07/20 07:06:27;;;;;;;18.27;6.90;;;;;;;;;;4973325;28;20487;-54
2022/07/20 07:08:53;;;;;;;16.88;7.28;;;;;;;;;;4972987;28;20029;-56
2022/07/20 07:11:19;;;;;;;20.25;6.38;;;;;;;;;;4973218;28;20089;-58
2022/07/20 07:13:45;;;;;;;14.38;6.00;;;;;;;;;;4972871;28;20456;-58
2022/07/20 07:16:11;;;;;;;17.83;7.57;;;;;;;;;;4973043;28;20114;-57
2022/07/20 07:18:37;;;;;;;15.85;5.53;;;;;;;;;;4972942;28;20027;-57
2022/07/20 07:21:04;;;;;;;14.65;5.70;;;;;;;;;;4973062;28;20388;-57
2022/07/20 07:23:30;;;;;;;13.45;5.80;;;;;;;;;;4972995;28;20027;-57
2022/07/20 07:25:56;;;;;;;22.60;5.82;;;;;;;;;;4973122;28;20030;-57
2022/07/20 07:28:22;;;;;;;25.33;6.20;;;;;;;;;;4971687;28;20023;-56
2022/07/20 07:30:51;;;;;;;22.50;6.65;;;;;;;;;;4973314;28;20043;-57
2022/07/20 07:33:19;;;;;;;13.57;6.30;;;;;;;;;;4972862;28;20031;-58
2022/07/20 07:35:45;;;;;;;20.48;6.40;;;;;;;;;;4972907;28;20047;-57
2022/07/20 07:38:13;;;;;;;15.18;5.93;;;;;;;;;;4972846;28;20023;-56
2022/07/20 07:40:39;;;;;;;19.85;5.75;;;;;;;;;;4972675;28;20026;-54
2022/07/20 07:43:05;;;;;;;13.55;4.72;;;;;;;;;;4972683;28;20114;-56
2022/07/20 07:45:31;;;;;;;12.95;3.80;;;;;;;;;;4972923;28;20057;-55
2022/07/20 07:47:57;;;;;;;15.02;3.75;;;;;;;;;;4972803;28;20105;-54
2022/07/20 07:50:23;;;;;;;11.13;5.82;;;;;;;;;;4971372;28;20113;-53
2022/07/20 07:52:49;;;;;;;16.08;3.53;;;;;;;;;;4972697;28;20031;-54
2022/07/20 07:55:15;;;;;;;12.75;3.33;;;;;;;;;;4972751;28;20077;-56
2022/07/20 07:57:42;;;;;;;8.52;4.05;;;;;;;;;;4972605;28;20034;-53
2022/07/20 08:00:08;;;;;;;;;;;;;;;;;;4972997;28;20027;-53
2022/07/20 08:02:34;;;;;;;14.32;3.58;;;;;;;;;;4972734;28;20031;-55
2022/07/20 08:05:00;;;;;;;22.30;3.15;;;;;;;;;;4972546;28;20027;-56
2022/07/20 08:07:26;;;;;;;11.68;2.70;;;;;;;;;;4972608;28;20373;-57
2022/07/20 08:09:52;;;;;;;5.47;2.33;;;;;;;;;;4972489;28;20089;-57
2022/07/20 08:12:20;;;;;;;9.70;2.95;;;;;;;;;;4972514;28;20038;-57
2022/07/20 08:14:46;;;;;;;9.63;2.47;;;;;;;;;;4972455;28;20065;-55
2022/07/20 08:17:12;;;;;;;6.53;2.45;;;;;;;;;;4972394;28;20027;-58
2022/07/20 08:19:38;;;;;;;8.52;2.95;;;;;;;;;;4972271;28;20431;-57
2022/07/20 08:22:04;;;;;;;10.73;2.75;;;;;;;;;;4972437;28;20404;-58
2022/07/20 08:24:30;;;;;;;11.52;2.92;;;;;;;;;;4972373;28;20432;-56
2022/07/20 08:26:56;;;;;;;13.65;2.90;;;;;;;;;;4971193;28;20504;-55
2022/07/20 08:29:23;;;;;;;4.90;2.03;;;;;;;;;;4971075;28;20057;-57
2022/07/20 08:31:49;;;;;;;8.73;2.35;;;;;;;;;;4975600;28;20057;-54
2022/07/20 08:34:15;;;;;;;5.40;2.53;;;;;;;;;;4975977;28;20407;-55
2022/07/20 08:36:41;;;;;;;8.30;2.65;;;;;;;;;;4975918;28;20523;-55
2022/07/20 08:39:07;;;;;;;5.43;2.13;;;;;;;;;;4975583;28;20036;-56
2022/07/20 08:41:33;;;;;;;4.45;1.98;;;;;;;;;;4974480;28;20022;-56
2022/07/20 08:43:59;;;;;;;5.32;2.25;;;;;;;;;;4975699;28;20054;-56
2022/07/20 08:46:29;;;;;;;6.63;2.22;;;;;;;;;;4975650;28;20415;-53
2022/07/20 08:48:55;;;;;;;4.85;2.13;;;;;;;;;;4974205;28;20118;-56
2022/07/20 08:51:22;;;;;;;7.45;2.13;;;;;;;;;;4975634;28;20476;-56
2022/07/20 08:53:48;;;;;;;9.23;2.20;;;;;;;;;;4975412;28;20039;-55
2022/07/20 08:56:15;;;;;;;6.50;1.80;;;;;;;;;;4975478;28;20480;-57
2022/07/20 08:58:41;;;;;;;6.80;1.90;;;;;;;;;;4975427;28;20089;-56
2022/07/20 09:01:12;;;;;;;9.18;1.95;;;;;;;;;;4975401;28;20027;-56
2022/07/20 09:03:41;;;;;;;7.43;1.70;;;;;;;;;;4975421;28;20158;-56
2022/07/20 09:06:07;;;;;;;6.80;1.58;;;;;;;;;;4975278;28;20101;-54
2022/07/20 09:08:33;;;;;;;5.57;1.40;;;;;;;;;;4975246;28;20031;-56
2022/07/20 09:11:01;;;;;;;2.90;1.50;;;;;;;;;;4975528;28;20435;-56
2022/07/20 09:13:32;;;;;;;6.82;2.00;;;;;;;;;;4975008;28;20094;-56
2022/07/20 09:15:58;;;;;;;9.65;2.53;;;;;;;;;;4975268;28;20085;-54
2022/07/20 09:18:26;;;;;;;5.97;1.88;;;;;;;;;;4975095;28;20031;-53
2022/07/20 09:20:52;;;;;;;5.40;2.15;;;;;;;;;;4974864;28;20094;-55
2022/07/20 09:23:19;;;;;;;9.85;1.90;;;;;;;;;;4974767;28;20027;-54
2022/07/20 09:25:49;;;;;;;14.02;2.15;;;;;;;;;;4975037;28;20677;-56
2022/07/20 09:28:15;;;;;;;16.67;1.83;;;;;;;;;;4975154;28;20031;-56
2022/07/20 09:30:49;;;;;;;7.18;1.75;;;;;;;;;;4973546;28;20051;-56
2022/07/20 09:33:15;;;;;;;4.25;1.55;;;;;;;;;;4974780;28;20046;-56
2022/07/20 09:35:41;;;;;;;;;;;;;;;;;;4974002;28;20077;-55
2022/07/20 09:38:08;;;;;;;4.45;1.42;;;;;;;;;;4974749;28;20371;-54
2022/07/20 09:40:45;;;;;;;3.05;1.55;;;;;;;;;;4974621;28;20031;-58
2022/07/20 09:43:31;;;;;;;12.35;2.40;;;;;;;;;;4973652;28;20073;-54
2022/07/20 09:46:18;;;;;;;7.78;2.17;;;;;;;;;;4974699;28;20086;-54
2022/07/20 09:48:44;;;;;;;4.65;1.20;;;;;;;;;;4973196;28;20033;-54
2022/07/20 09:51:19;;;;;;;7.07;1.60;;;;;;;;;;4974485;28;20523;-53
2022/07/20 09:53:45;;;;;;;7.03;2.00;;;;;;;;;;4974437;28;20106;-54
2022/07/20 09:56:12;;;;;;;2.30;1.35;;;;;;;;;;4974409;28;20054;-55
2022/07/20 09:58:38;;;;;;;3.67;1.33;;;;;;;;;;4974324;28;20564;-57
2022/07/20 10:01:04;;;;;;;9.23;1.65;;;;;;;;;;4973015;28;20037;-58
2022/07/20 10:03:30;;;;;;;2.00;1.27;;;;;;;;;;4974157;28;20031;-56
2022/07/20 10:05:57;;;;;;;8.32;1.55;;;;;;;;;;4974221;28;20035;-56
2022/07/20 10:08:24;;;;;;;5.32;1.40;;;;;;;;;;4974210;28;20023;-54
2022/07/20 10:10:50;;;;;;;3.72;1.50;;;;;;;;;;4979171;28;20026;-54
2022/07/20 10:13:17;;;;;;;9.20;2.08;;;;;;;;;;4992823;28;20053;-55
2022/07/20 10:15:52;;;;;;;4.68;2.15;;;;;;;;;;4993505;28;20027;-54
2022/07/20 10:18:19;;;;;;;4.75;1.48;;;;;;;;;;4984732;28;20395;-55
2022/07/20 10:20:45;;;;;;;9.25;2.10;;;;;;;;;;4973943;28;20511;-53
2022/07/20 10:23:27;;;;;;;4.85;1.70;;;;;;;;;;4987741;28;20030;-53
2022/07/20 10:25:54;;;;;;;4.05;1.75;;;;;;;;;;4993298;28;20097;-53
2022/07/20 10:28:20;;;;;;;;;;;;;;;;;;4993642;28;20022;-55
2022/07/20 10:30:57;;;;;;;4.72;1.38;;;;;;;;;;4993193;28;19960;-53
2022/07/20 10:33:23;;;;;;;5.50;1.42;;;;;;;;;;4991744;28;20022;-56
2022/07/20 10:35:50;;;;;;;2.13;1.40;;;;;;;;;;4991247;28;20018;-58
2022/07/20 10:38:16;;;;;;;;;;;;;;;;;;4992507;28;20062;-54
2022/07/20 10:44:06;;;;;;;3.33;1.45;;;;;;;;;;4992089;28;20080;-57
2022/07/20 10:46:33;;;;;;;5.38;1.77;;;;;;;;;;4991339;28;20026;-53
2022/07/20 10:48:59;;;;;;;4.47;1.92;;;;;;;;;;4992631;28;20467;-55
2022/07/20 10:51:26;;;;;;;6.65;1.50;;;;;;;;;;4992469;28;20166;-54
2022/07/20 10:53:52;;;;;;;3.83;1.38;;;;;;;;;;4986552;28;20113;-55
2022/07/20 10:56:28;;;;;;;2.92;1.40;;;;;;;;;;4979783;28;20085;-55
2022/07/20 10:58:59;;;;;;;3.63;1.63;;;;;;;;;;4973282;28;20039;-58
2022/07/20 11:01:25;;;;;;;4.05;1.35;;;;;;;;;;4987287;28;20038;-57
2022/07/20 11:03:51;;;;;;;7.43;1.25;;;;;;;;;;4985152;28;20029;-60
2022/07/20 11:06:18;;;;;;;2.40;1.35;;;;;;;;;;4992704;28;20035;-60
2022/07/20 11:08:51;;;;;;;2.13;1.50;;;;;;;;;;4992547;28;20433;-59
2022/07/20 11:11:18;;;;;;;3.72;1.42;;;;;;;;;;4992702;28;20026;-59
2022/07/20 11:13:46;;;;;;;8.38;1.83;;;;;;;;;;5006254;22;20029;-55
2022/07/20 11:16:12;;;;;;;6.47;1.42;;;;;;;;;;4990518;28;20026;-59
2022/07/20 11:18:39;;;;;;;4.03;1.60;;;;;;;;;;4991098;28;20041;-59
2022/07/20 11:21:09;;;;;;;3.55;1.10;;;;;;;;;;4991593;28;20023;-58
2022/07/20 11:23:43;;;;;;;2.72;1.40;;;;;;;;;;4992602;28;20147;-55
2022/07/20 11:26:10;;;;;;;3.17;1.30;;;;;;;;;;4985696;28;20042;-58
2022/07/20 11:28:38;;;;;;;3.97;1.40;;;;;;;;;;4985579;28;20391;-56
2022/07/20 11:31:07;;;;;;;8.20;1.80;;;;;;;;;;4987561;28;20038;-60
2022/07/20 11:33:37;;;;;;;2.22;1.52;;;;;;;;;;4992457;28;20026;-58
2022/07/20 11:36:03;;;;;;;4.57;1.70;;;;;;;;;;4992100;28;20395;-58
2022/07/20 11:38:29;;;;;;;;;;;;;;;;;;4992407;28;20379;-57
2022/07/20 11:40:57;;;;;;;3.72;1.75;;;;;;;;;;4990084;28;19909;-58
2022/07/20 11:43:23;;;;;;;5.10;1.33;;;;;;;;;;4978585;28;20109;-58
2022/07/20 11:45:49;;;;;;;2.45;1.60;;;;;;;;;;4992350;28;20027;-60
2022/07/20 11:48:18;;;;;;;2.92;1.60;;;;;;;;;;4991765;28;20043;-58
2022/07/20 11:50:44;;;;;;;2.30;1.40;;;;;;;;;;4991492;28;20690;-58
2022/07/20 11:53:10;;;;;;;;;;;;;;;;;;4992756;28;20037;-58
2022/07/20 11:55:36;;;;;;;4.07;1.52;;;;;;;;;;4992471;28;19906;-58
2022/07/20 11:58:02;;;;;;;;;;;;;;;;;;4992387;28;20035;-60
2022/07/20 12:00:29;;;;;;;8.00;1.95;;;;;;;;;;4991802;28;19917;-59
2022/07/20 12:02:56;;;;;;;7.05;1.80;;;;;;;;;;4991933;28;20027;-58
2022/07/20 12:05:22;;;;;;;5.15;1.55;;;;;;;;;;4989898;28;20022;-59
2022/07/20 12:10:34;;;;;;;5.00;1.20;;;;;;;;;;4995757;28;20658;-58
2022/07/20 12:13:04;;;;;;;5.43;1.70;;;;;;;;;;4995533;28;20070;-58
2022/07/20 12:15:31;;;;;;;6.55;1.95;;;;;;;;;;4995767;28;20041;-57
2022/07/20 12:17:57;;;;;;;3.97;1.75;;;;;;;;;;4995385;28;20034;-60
2022/07/20 12:20:23;;;;;;;;;;;;;;;;;;4995182;28;20383;-60
2022/07/20 12:22:54;;;;;;;10.52;2.20;;;;;;;;;;4995682;28;19910;-60
2022/07/20 12:25:20;;;;;;;4.50;1.90;;;;;;;;;;4995599;28;20038;-58
2022/07/20 12:27:46;;;;;;;3.58;1.83;;;;;;;;;;4995241;28;20029;-59
2022/07/20 12:30:12;;;;;;;;;;;;;;;;;;4995118;28;20386;-59
2022/07/20 12:32:38;;;;;;;5.50;2.03;;;;;;;;;;4994822;28;19917;-58
2022/07/20 12:35:06;;;;;;;3.63;1.38;;;;;;;;;;4995424;28;20155;-58
2022/07/20 12:37:50;;;;;;;9.45;1.58;;;;;;;;;;4995535;28;20380;-58
2022/07/20 12:40:36;;;;;;;16.20;2.10;;;;;;;;;;4979670;28;20073;-58
2022/07/20 12:43:03;;;;;;;8.88;2.30;;;;;;;;;;4991693;28;20023;-58
2022/07/20 12:45:29;;;;;;;2.75;1.70;;;;;;;;;;4976763;28;20027;-57
2022/07/20 12:47:55;;;;;;;8.52;1.75;;;;;;;;;;4990581;28;20031;-60
2022/07/20 12:50:21;;;;;;;1.77;1.60;;;;;;;;;;4986663;28;20042;-60
2022/07/20 12:52:47;;;;;;;4.15;1.67;;;;;;;;;;4988602;28;20402;-60
2022/07/20 12:55:14;;;;;;;7.50;1.90;;;;;;;;;;4991673;28;20450;-60
2022/07/20 12:57:40;;;;;;;4.35;1.67;;;;;;;;;;4994750;28;20034;-58
2022/07/20 13:00:06;;;;;;;;;;;;;;;;;;4995335;28;20018;-57
2022/07/20 13:02:32;;;;;;;18.42;1.88;;;;;;;;;;4994617;28;20398;-58
2022/07/20 13:04:58;;;;;;;4.45;1.70;;;;;;;;;;4994244;28;20030;-57
2022/07/20 13:07:24;;;;;;;3.45;1.45;;;;;;;;;;4993619;28;20454;-58
2022/07/20 13:09:50;;;;;;;3.10;1.80;;;;;;;;;;4994900;28;20037;-58
2022/07/20 13:12:18;;;;;;;;;;;;;;;;;;4992055;28;20030;-59
2022/07/20 13:14:44;;;;;;;;;;;;;;;;;;4991317;28;20378;-60
2022/07/20 13:17:10;;;;;;;3.38;1.40;;;;;;;;;;4993641;28;19921;-59
2022/07/20 13:19:36;;;;;;;4.05;1.52;;;;;;;;;;4988157;28;20092;-58
2022/07/20 13:22:02;;;;;;;6.15;1.70;;;;;;;;;;4993525;28;20475;-60
2022/07/20 13:24:28;;;;;;;5.28;1.88;;;;;;;;;;4994062;28;20026;-59
2022/07/20 13:26:55;;;;;;;3.63;1.30;;;;;;;;;;4994295;28;20054;-59
2022/07/20 13:29:21;;;;;;;3.00;1.38;;;;;;;;;;4994664;28;20030;-58
2022/07/20 13:31:47;;;;;;;4.30;1.92;;;;;;;;;;4994303;28;20105;-57
2022/07/20 13:34:13;;;;;;;3.00;1.80;;;;;;;;;;4994232;28;20038;-57
2022/07/20 13:36:39;;;;;;;2.45;1.48;;;;;;;;;;4990405;28;20022;-57
2022/07/20 13:39:06;;;;;;;5.88;1.52;;;;;;;;;;4988010;28;20034;-58
2022/07/20 13:41:32;;;;;;;2.33;1.63;;;;;;;;;;4993377;28;20546;-59
2022/07/20 13:43:58;;;;;;;2.90;1.98;;;;;;;;;;4994214;28;20085;-59
2022/07/20 13:46:24;;;;;;;3.53;2.03;;;;;;;;;;4994266;28;20030;-58
2022/07/20 13:48:51;;;;;;;3.58;1.85;;;;;;;;;;4974462;28;20452;-58
2022/07/20 13:51:18;;;;;;;4.57;2.35;;;;;;;;;;4984596;28;20030;-57
2022/07/20 13:53:44;;;;;;;11.18;2.28;;;;;;;;;;4993749;28;20542;-59
2022/07/20 13:56:10;;;;;;;3.00;2.00;;;;;;;;;;4993727;28;20360;-59
2022/07/20 13:58:37;;;;;;;4.82;1.83;;;;;;;;;;4992441;28;20113;-62
2022/07/20 14:01:04;;;;;;;10.18;1.70;;;;;;;;;;4993877;28;20479;-58
2022/07/20 14:03:30;;;;;;;7.25;1.88;;;;;;;;;;4993235;28;20157;-57
2022/07/20 14:05:56;;;;;;;25.35;3.03;;;;;;;;;;4993488;28;20034;-57
2022/07/20 14:08:23;;;;;;;8.27;2.30;;;;;;;;;;4991873;28;20679;-58
2022/07/20 14:10:51;;;;;;;5.60;1.80;;;;;;;;;;4993388;28;20027;-60
2022/07/20 14:13:17;;;;;;;7.47;2.05;;;;;;;;;;4992446;28;20494;-59
2022/07/20 14:15:43;;;;;;;6.18;2.05;;;;;;;;;;4989061;28;20034;-61
2022/07/20 14:18:10;;;;;;;2.53;1.80;;;;;;;;;;4983927;28;20033;-57
2022/07/20 14:20:36;;;;;;;4.72;2.13;;;;;;;;;;4993181;28;20089;-58
2022/07/20 14:23:02;;;;;;;5.32;2.05;;;;;;;;;;4993144;28;20391;-59
2022/07/20 14:25:28;;;;;;;7.57;2.17;;;;;;;;;;4993332;28;20069;-58
2022/07/20 14:27:54;;;;;;;3.25;1.90;;;;;;;;;;4992866;28;20027;-58
2022/07/20 14:30:20;;;;;;;2.65;1.60;;;;;;;;;;4987230;28;20034;-59
2022/07/20 14:32:47;;;;;;;3.85;1.77;;;;;;;;;;4987005;28;20030;-60
2022/07/20 14:35:13;;;;;;;9.07;2.30;;;;;;;;;;4985294;28;20038;-60
2022/07/20 14:37:40;;;;;;;8.25;2.15;;;;;;;;;;4986843;28;20034;-58
2022/07/20 14:40:08;;;;;;;4.40;2.08;;;;;;;;;;4988554;28;20033;-58
2022/07/20 14:42:34;;;;;;;11.38;2.03;;;;;;;;;;4993071;28;20029;-60
2022/07/20 14:45:00;;;;;;;7.32;2.50;;;;;;;;;;4986875;28;20088;-58
2022/07/20 14:47:27;;;;;;;6.50;2.25;;;;;;;;;;4992795;28;20034;-61